sensor_id;sensor_type;location;lat;lon;timestamp;P1;durP1;ratioP1;P2;durP2;ratioP2
8281;SDS011;25606;42.686;23.136;2023-01-16T00:00:11;11.77;;;8.90;;
8281;SDS011;25606;42.686;23.136;2023-01-16T00:02:39;13.80;;;8.77;;
8281;SDS011;25606;42.686;23.136;2023-01-16T00:05:07;12.93;;;9.17;;
8281;SDS011;25606;42.686;23.136;2023-01-16T00:07:35;14.53;;;10.10;;
8281;SDS011;25606;42.686;23.136;2023-01-16T00:10:02;14.77;;;9.70;;
8281;SDS011;25606;42.686;23.136;2023-01-16T00:12:30;13.03;;;9.03;;
8281;SDS011;25606;42.686;23.136;2023-01-16T00:14:57;13.60;;;8.87;;
8281;SDS011;25606;42.686;23.136;2023-01-16T00:17:24;14.70;;;9.00;;
8281;SDS011;25606;42.686;23.136;2023-01-16T00:19:52;10.80;;;7.53;;
8281;SDS011;25606;42.686;23.136;2023-01-16T00:22:20;14.97;;;8.97;;
8281;SDS011;25606;42.686;23.136;2023-01-16T00:24:48;12.80;;;8.83;;
8281;SDS011;25606;42.686;23.136;2023-01-16T00:27:15;12.97;;;8.87;;
8281;SDS011;25606;42.686;23.136;2023-01-16T00:29:42;12.83;;;9.63;;
8281;SDS011;25606;42.686;23.136;2023-01-16T00:32:09;10.37;;;7.07;;
8281;SDS011;25606;42.686;23.136;2023-01-16T00:34:38;25.00;;;22.10;;
8281;SDS011;25606;42.686;23.136;2023-01-16T00:37:05;16.53;;;13.20;;
8281;SDS011;25606;42.686;23.136;2023-01-16T00:39:34;16.33;;;11.70;;
8281;SDS011;25606;42.686;23.136;2023-01-16T00:42:03;13.63;;;9.33;;
8281;SDS011;25606;42.686;23.136;2023-01-16T00:44:30;11.77;;;8.37;;
8281;SDS011;25606;42.686;23.136;2023-01-16T00:46:58;11.87;;;8.33;;
8281;SDS011;25606;42.686;23.136;2023-01-16T00:49:25;12.97;;;9.20;;
8281;SDS011;25606;42.686;23.136;2023-01-16T00:51:52;16.17;;;11.67;;
8281;SDS011;25606;42.686;23.136;2023-01-16T00:54:20;22.33;;;15.37;;
8281;SDS011;25606;42.686;23.136;2023-01-16T00:56:48;16.03;;;11.83;;
8281;SDS011;25606;42.686;23.136;2023-01-16T00:59:16;10.13;;;7.73;;
8281;SDS011;25606;42.686;23.136;2023-01-16T01:01:43;11.60;;;8.37;;
8281;SDS011;25606;42.686;23.136;2023-01-16T01:04:10;8.83;;;5.90;;
8281;SDS011;25606;42.686;23.136;2023-01-16T01:06:38;12.27;;;8.53;;
8281;SDS011;25606;42.686;23.136;2023-01-16T01:09:05;12.97;;;9.30;;
8281;SDS011;25606;42.686;23.136;2023-01-16T01:11:33;13.63;;;7.80;;
8281;SDS011;25606;42.686;23.136;2023-01-16T01:14:01;11.43;;;7.30;;
8281;SDS011;25606;42.686;23.136;2023-01-16T01:16:29;10.17;;;6.90;;
8281;SDS011;25606;42.686;23.136;2023-01-16T01:18:56;16.20;;;7.63;;
8281;SDS011;25606;42.686;23.136;2023-01-16T01:21:23;10.80;;;7.30;;
8281;SDS011;25606;42.686;23.136;2023-01-16T01:23:50;8.97;;;6.80;;
8281;SDS011;25606;42.686;23.136;2023-01-16T01:26:18;8.87;;;6.37;;
8281;SDS011;25606;42.686;23.136;2023-01-16T01:28:45;9.97;;;7.00;;
8281;SDS011;25606;42.686;23.136;2023-01-16T01:31:14;11.80;;;7.03;;
8281;SDS011;25606;42.686;23.136;2023-01-16T01:33:41;29.17;;;19.40;;
8281;SDS011;25606;42.686;23.136;2023-01-16T01:36:09;12.40;;;9.03;;
8281;SDS011;25606;42.686;23.136;2023-01-16T01:38:36;13.50;;;8.33;;
8281;SDS011;25606;42.686;23.136;2023-01-16T01:41:04;8.57;;;6.30;;
8281;SDS011;25606;42.686;23.136;2023-01-16T01:43:42;12.07;;;8.27;;
8281;SDS011;25606;42.686;23.136;2023-01-16T01:46:15;16.27;;;12.60;;
8281;SDS011;25606;42.686;23.136;2023-01-16T01:48:46;10.93;;;7.50;;
8281;SDS011;25606;42.686;23.136;2023-01-16T01:51:15;11.57;;;8.07;;
8281;SDS011;25606;42.686;23.136;2023-01-16T01:53:45;11.77;;;8.47;;
8281;SDS011;25606;42.686;23.136;2023-01-16T01:56:14;12.40;;;8.40;;
8281;SDS011;25606;42.686;23.136;2023-01-16T01:58:43;9.10;;;6.40;;
8281;SDS011;25606;42.686;23.136;2023-01-16T02:01:14;9.57;;;6.87;;
8281;SDS011;25606;42.686;23.136;2023-01-16T02:03:41;12.43;;;7.43;;
8281;SDS011;25606;42.686;23.136;2023-01-16T02:06:19;11.60;;;7.37;;
8281;SDS011;25606;42.686;23.136;2023-01-16T02:08:46;10.83;;;7.67;;
8281;SDS011;25606;42.686;23.136;2023-01-16T02:11:16;10.20;;;6.77;;
8281;SDS011;25606;42.686;23.136;2023-01-16T02:13:52;10.97;;;6.93;;
8281;SDS011;25606;42.686;23.136;2023-01-16T02:16:21;11.83;;;7.23;;
8281;SDS011;25606;42.686;23.136;2023-01-16T02:19:06;10.43;;;8.00;;
8281;SDS011;25606;42.686;23.136;2023-01-16T02:24:34;10.90;;;7.73;;
8281;SDS011;25606;42.686;23.136;2023-01-16T02:27:08;13.97;;;9.33;;
8281;SDS011;25606;42.686;23.136;2023-01-16T02:32:28;12.40;;;8.30;;
8281;SDS011;25606;42.686;23.136;2023-01-16T02:35:05;15.43;;;8.60;;
8281;SDS011;25606;42.686;23.136;2023-01-16T02:37:36;12.00;;;8.97;;
8281;SDS011;25606;42.686;23.136;2023-01-16T02:40:08;12.40;;;8.27;;
8281;SDS011;25606;42.686;23.136;2023-01-16T02:42:40;11.13;;;7.93;;
8281;SDS011;25606;42.686;23.136;2023-01-16T02:45:10;9.63;;;7.10;;
8281;SDS011;25606;42.686;23.136;2023-01-16T02:47:41;11.57;;;8.03;;
8281;SDS011;25606;42.686;23.136;2023-01-16T02:50:11;13.13;;;9.00;;
8281;SDS011;25606;42.686;23.136;2023-01-16T02:52:42;12.93;;;9.00;;
8281;SDS011;25606;42.686;23.136;2023-01-16T02:55:12;16.27;;;10.57;;
8281;SDS011;25606;42.686;23.136;2023-01-16T02:57:43;16.33;;;9.67;;
8281;SDS011;25606;42.686;23.136;2023-01-16T03:00:12;19.17;;;10.40;;
8281;SDS011;25606;42.686;23.136;2023-01-16T03:02:43;16.30;;;9.53;;
8281;SDS011;25606;42.686;23.136;2023-01-16T03:05:11;15.73;;;9.90;;
8281;SDS011;25606;42.686;23.136;2023-01-16T03:07:45;17.37;;;10.87;;
8281;SDS011;25606;42.686;23.136;2023-01-16T03:13:08;12.40;;;9.00;;
8281;SDS011;25606;42.686;23.136;2023-01-16T03:15:39;13.27;;;8.13;;
8281;SDS011;25606;42.686;23.136;2023-01-16T03:18:15;14.43;;;9.03;;
8281;SDS011;25606;42.686;23.136;2023-01-16T03:20:48;10.60;;;7.07;;
8281;SDS011;25606;42.686;23.136;2023-01-16T03:23:20;14.70;;;9.17;;
8281;SDS011;25606;42.686;23.136;2023-01-16T03:25:51;11.50;;;8.20;;
8281;SDS011;25606;42.686;23.136;2023-01-16T03:28:20;10.50;;;8.10;;
8281;SDS011;25606;42.686;23.136;2023-01-16T03:30:50;12.23;;;8.57;;
8281;SDS011;25606;42.686;23.136;2023-01-16T03:33:22;13.53;;;9.07;;
8281;SDS011;25606;42.686;23.136;2023-01-16T03:35:51;15.77;;;9.03;;
8281;SDS011;25606;42.686;23.136;2023-01-16T03:38:21;15.30;;;8.87;;
8281;SDS011;25606;42.686;23.136;2023-01-16T03:40:49;14.90;;;9.70;;
8281;SDS011;25606;42.686;23.136;2023-01-16T03:43:18;15.53;;;9.93;;
8281;SDS011;25606;42.686;23.136;2023-01-16T03:45:47;18.93;;;10.33;;
8281;SDS011;25606;42.686;23.136;2023-01-16T03:48:18;110.23;;;14.90;;
8281;SDS011;25606;42.686;23.136;2023-01-16T03:50:48;35.17;;;13.90;;
8281;SDS011;25606;42.686;23.136;2023-01-16T03:53:16;35.10;;;12.60;;
8281;SDS011;25606;42.686;23.136;2023-01-16T03:55:46;43.53;;;16.87;;
8281;SDS011;25606;42.686;23.136;2023-01-16T03:58:18;41.80;;;19.77;;
8281;SDS011;25606;42.686;23.136;2023-01-16T04:00:48;24.30;;;14.00;;
8281;SDS011;25606;42.686;23.136;2023-01-16T04:03:19;35.37;;;18.13;;
8281;SDS011;25606;42.686;23.136;2023-01-16T04:05:49;54.90;;;14.80;;
8281;SDS011;25606;42.686;23.136;2023-01-16T04:08:19;30.10;;;21.77;;
8281;SDS011;25606;42.686;23.136;2023-01-16T04:10:48;78.73;;;33.43;;
8281;SDS011;25606;42.686;23.136;2023-01-16T04:13:17;83.40;;;19.93;;
8281;SDS011;25606;42.686;23.136;2023-01-16T04:15:45;48.60;;;15.77;;
8281;SDS011;25606;42.686;23.136;2023-01-16T04:18:14;82.03;;;16.67;;
8281;SDS011;25606;42.686;23.136;2023-01-16T04:20:41;46.80;;;13.43;;
8281;SDS011;25606;42.686;23.136;2023-01-16T04:23:12;35.20;;;12.27;;
8281;SDS011;25606;42.686;23.136;2023-01-16T04:25:41;89.57;;;17.60;;
8281;SDS011;25606;42.686;23.136;2023-01-16T04:28:08;130.20;;;15.50;;
8281;SDS011;25606;42.686;23.136;2023-01-16T04:30:35;83.97;;;18.40;;
8281;SDS011;25606;42.686;23.136;2023-01-16T04:33:03;52.30;;;12.73;;
8281;SDS011;25606;42.686;23.136;2023-01-16T04:35:31;75.80;;;12.70;;
8281;SDS011;25606;42.686;23.136;2023-01-16T04:37:58;40.67;;;20.23;;
8281;SDS011;25606;42.686;23.136;2023-01-16T04:40:27;42.70;;;10.87;;
8281;SDS011;25606;42.686;23.136;2023-01-16T04:42:54;94.87;;;19.43;;
8281;SDS011;25606;42.686;23.136;2023-01-16T04:45:22;139.37;;;39.03;;
8281;SDS011;25606;42.686;23.136;2023-01-16T04:47:50;85.97;;;24.73;;
8281;SDS011;25606;42.686;23.136;2023-01-16T04:50:17;242.23;;;53.40;;
8281;SDS011;25606;42.686;23.136;2023-01-16T04:52:45;87.13;;;39.07;;
8281;SDS011;25606;42.686;23.136;2023-01-16T04:55:12;87.43;;;30.60;;
8281;SDS011;25606;42.686;23.136;2023-01-16T04:57:41;66.60;;;15.23;;
8281;SDS011;25606;42.686;23.136;2023-01-16T05:00:09;57.77;;;12.20;;
8281;SDS011;25606;42.686;23.136;2023-01-16T05:02:37;55.27;;;18.57;;
8281;SDS011;25606;42.686;23.136;2023-01-16T05:05:04;43.60;;;11.23;;
8281;SDS011;25606;42.686;23.136;2023-01-16T05:07:32;35.97;;;11.10;;
8281;SDS011;25606;42.686;23.136;2023-01-16T05:09:59;38.30;;;11.07;;
8281;SDS011;25606;42.686;23.136;2023-01-16T05:12:26;45.13;;;13.77;;
8281;SDS011;25606;42.686;23.136;2023-01-16T05:14:55;99.10;;;14.07;;
8281;SDS011;25606;42.686;23.136;2023-01-16T05:17:22;155.90;;;30.27;;
8281;SDS011;25606;42.686;23.136;2023-01-16T05:19:51;110.50;;;35.90;;
8281;SDS011;25606;42.686;23.136;2023-01-16T05:22:18;53.10;;;11.80;;
8281;SDS011;25606;42.686;23.136;2023-01-16T05:24:46;70.67;;;15.60;;
8281;SDS011;25606;42.686;23.136;2023-01-16T05:27:13;24.80;;;10.67;;
8281;SDS011;25606;42.686;23.136;2023-01-16T05:29:40;24.50;;;13.70;;
8281;SDS011;25606;42.686;23.136;2023-01-16T05:32:09;28.43;;;16.83;;
8281;SDS011;25606;42.686;23.136;2023-01-16T05:34:36;20.57;;;11.80;;
8281;SDS011;25606;42.686;23.136;2023-01-16T05:37:04;21.70;;;11.77;;
8281;SDS011;25606;42.686;23.136;2023-01-16T05:39:31;16.73;;;10.63;;
8281;SDS011;25606;42.686;23.136;2023-01-16T05:41:58;20.40;;;11.40;;
8281;SDS011;25606;42.686;23.136;2023-01-16T05:44:26;26.87;;;16.33;;
8281;SDS011;25606;42.686;23.136;2023-01-16T05:46:53;18.17;;;10.70;;
8281;SDS011;25606;42.686;23.136;2023-01-16T05:49:21;22.00;;;11.73;;
8281;SDS011;25606;42.686;23.136;2023-01-16T05:51:49;17.33;;;11.23;;
8281;SDS011;25606;42.686;23.136;2023-01-16T05:54:16;19.73;;;10.33;;
8281;SDS011;25606;42.686;23.136;2023-01-16T05:56:43;18.00;;;11.00;;
8281;SDS011;25606;42.686;23.136;2023-01-16T05:59:11;15.53;;;10.00;;
8281;SDS011;25606;42.686;23.136;2023-01-16T06:01:38;27.10;;;19.63;;
8281;SDS011;25606;42.686;23.136;2023-01-16T06:04:05;20.93;;;12.13;;
8281;SDS011;25606;42.686;23.136;2023-01-16T06:06:34;18.60;;;11.43;;
8281;SDS011;25606;42.686;23.136;2023-01-16T06:09:01;22.57;;;14.17;;
8281;SDS011;25606;42.686;23.136;2023-01-16T06:11:29;22.67;;;12.47;;
8281;SDS011;25606;42.686;23.136;2023-01-16T06:13:56;22.83;;;12.80;;
8281;SDS011;25606;42.686;23.136;2023-01-16T06:16:28;21.23;;;11.67;;
8281;SDS011;25606;42.686;23.136;2023-01-16T06:18:55;19.50;;;11.10;;
8281;SDS011;25606;42.686;23.136;2023-01-16T06:21:23;19.20;;;10.17;;
8281;SDS011;25606;42.686;23.136;2023-01-16T06:23:51;19.67;;;11.67;;
8281;SDS011;25606;42.686;23.136;2023-01-16T06:26:19;19.73;;;11.83;;
8281;SDS011;25606;42.686;23.136;2023-01-16T06:28:46;18.60;;;12.20;;
8281;SDS011;25606;42.686;23.136;2023-01-16T06:31:13;19.67;;;11.83;;
8281;SDS011;25606;42.686;23.136;2023-01-16T06:33:40;20.87;;;11.50;;
8281;SDS011;25606;42.686;23.136;2023-01-16T06:36:08;20.40;;;11.00;;
8281;SDS011;25606;42.686;23.136;2023-01-16T06:38:35;19.83;;;11.63;;
8281;SDS011;25606;42.686;23.136;2023-01-16T06:41:04;20.20;;;13.50;;
8281;SDS011;25606;42.686;23.136;2023-01-16T06:43:31;23.10;;;12.43;;
8281;SDS011;25606;42.686;23.136;2023-01-16T06:45:59;19.97;;;12.73;;
8281;SDS011;25606;42.686;23.136;2023-01-16T06:48:26;21.40;;;12.80;;
8281;SDS011;25606;42.686;23.136;2023-01-16T06:50:54;20.37;;;13.60;;
8281;SDS011;25606;42.686;23.136;2023-01-16T06:53:21;25.57;;;14.23;;
8281;SDS011;25606;42.686;23.136;2023-01-16T06:55:48;23.43;;;14.73;;
8281;SDS011;25606;42.686;23.136;2023-01-16T06:58:17;18.80;;;12.00;;
8281;SDS011;25606;42.686;23.136;2023-01-16T07:00:44;23.57;;;13.30;;
8281;SDS011;25606;42.686;23.136;2023-01-16T07:03:16;20.53;;;12.67;;
8281;SDS011;25606;42.686;23.136;2023-01-16T07:05:43;16.47;;;11.67;;
8281;SDS011;25606;42.686;23.136;2023-01-16T07:08:11;17.53;;;10.57;;
8281;SDS011;25606;42.686;23.136;2023-01-16T07:10:38;21.27;;;12.93;;
8281;SDS011;25606;42.686;23.136;2023-01-16T07:13:06;16.30;;;9.93;;
8281;SDS011;25606;42.686;23.136;2023-01-16T07:15:36;19.80;;;12.37;;
8281;SDS011;25606;42.686;23.136;2023-01-16T07:18:21;17.60;;;11.70;;
8281;SDS011;25606;42.686;23.136;2023-01-16T07:21:10;16.57;;;10.40;;
8281;SDS011;25606;42.686;23.136;2023-01-16T07:23:58;13.73;;;8.87;;
8281;SDS011;25606;42.686;23.136;2023-01-16T07:26:25;11.37;;;8.60;;
8281;SDS011;25606;42.686;23.136;2023-01-16T07:28:54;11.47;;;7.93;;
8281;SDS011;25606;42.686;23.136;2023-01-16T07:31:24;14.03;;;9.23;;
8281;SDS011;25606;42.686;23.136;2023-01-16T07:33:52;19.60;;;12.23;;
8281;SDS011;25606;42.686;23.136;2023-01-16T07:36:19;16.43;;;10.40;;
8281;SDS011;25606;42.686;23.136;2023-01-16T07:38:46;9.97;;;7.30;;
8281;SDS011;25606;42.686;23.136;2023-01-16T07:41:14;10.77;;;6.87;;
8281;SDS011;25606;42.686;23.136;2023-01-16T07:43:41;9.67;;;6.93;;
8281;SDS011;25606;42.686;23.136;2023-01-16T07:46:08;11.57;;;7.27;;
8281;SDS011;25606;42.686;23.136;2023-01-16T07:48:37;8.20;;;6.40;;
8281;SDS011;25606;42.686;23.136;2023-01-16T07:51:04;7.60;;;5.93;;
8281;SDS011;25606;42.686;23.136;2023-01-16T07:53:32;9.20;;;6.30;;
8281;SDS011;25606;42.686;23.136;2023-01-16T07:56:00;7.07;;;5.67;;
8281;SDS011;25606;42.686;23.136;2023-01-16T07:58:28;9.30;;;5.40;;
8281;SDS011;25606;42.686;23.136;2023-01-16T08:00:57;9.27;;;5.97;;
8281;SDS011;25606;42.686;23.136;2023-01-16T08:03:24;8.93;;;5.83;;
8281;SDS011;25606;42.686;23.136;2023-01-16T08:05:55;7.07;;;5.10;;
8281;SDS011;25606;42.686;23.136;2023-01-16T08:08:23;7.20;;;4.97;;
8281;SDS011;25606;42.686;23.136;2023-01-16T08:10:52;7.10;;;5.30;;
8281;SDS011;25606;42.686;23.136;2023-01-16T08:13:20;9.13;;;5.50;;
8281;SDS011;25606;42.686;23.136;2023-01-16T08:15:47;6.10;;;5.20;;
8281;SDS011;25606;42.686;23.136;2023-01-16T08:18:15;6.93;;;5.20;;
8281;SDS011;25606;42.686;23.136;2023-01-16T08:20:44;6.13;;;4.83;;
8281;SDS011;25606;42.686;23.136;2023-01-16T08:23:13;7.27;;;5.10;;
8281;SDS011;25606;42.686;23.136;2023-01-16T08:25:41;8.67;;;5.07;;
8281;SDS011;25606;42.686;23.136;2023-01-16T08:28:08;6.87;;;5.60;;
8281;SDS011;25606;42.686;23.136;2023-01-16T08:30:35;5.30;;;4.60;;
8281;SDS011;25606;42.686;23.136;2023-01-16T08:33:03;6.77;;;4.83;;
8281;SDS011;25606;42.686;23.136;2023-01-16T08:35:30;5.50;;;4.60;;
8281;SDS011;25606;42.686;23.136;2023-01-16T08:37:57;6.60;;;4.47;;
8281;SDS011;25606;42.686;23.136;2023-01-16T08:40:26;8.43;;;5.67;;
8281;SDS011;25606;42.686;23.136;2023-01-16T08:42:54;7.63;;;5.90;;
8281;SDS011;25606;42.686;23.136;2023-01-16T08:45:39;8.57;;;5.57;;
8281;SDS011;25606;42.686;23.136;2023-01-16T08:48:24;8.80;;;5.60;;
8281;SDS011;25606;42.686;23.136;2023-01-16T08:51:13;7.90;;;6.20;;
8281;SDS011;25606;42.686;23.136;2023-01-16T08:53:50;7.23;;;5.70;;
8281;SDS011;25606;42.686;23.136;2023-01-16T08:56:19;7.63;;;5.30;;
8281;SDS011;25606;42.686;23.136;2023-01-16T08:58:46;7.57;;;4.67;;
8281;SDS011;25606;42.686;23.136;2023-01-16T09:01:14;13.40;;;9.73;;
8281;SDS011;25606;42.686;23.136;2023-01-16T09:03:41;9.30;;;6.00;;
8281;SDS011;25606;42.686;23.136;2023-01-16T09:06:09;7.63;;;5.20;;
8281;SDS011;25606;42.686;23.136;2023-01-16T09:08:36;8.40;;;5.93;;
8281;SDS011;25606;42.686;23.136;2023-01-16T09:11:04;8.00;;;5.27;;
8281;SDS011;25606;42.686;23.136;2023-01-16T09:13:50;6.77;;;4.73;;
8281;SDS011;25606;42.686;23.136;2023-01-16T09:16:18;5.80;;;5.20;;
8281;SDS011;25606;42.686;23.136;2023-01-16T09:18:46;7.33;;;5.40;;
8281;SDS011;25606;42.686;23.136;2023-01-16T09:21:13;9.60;;;6.60;;
8281;SDS011;25606;42.686;23.136;2023-01-16T09:23:41;10.33;;;6.67;;
8281;SDS011;25606;42.686;23.136;2023-01-16T09:26:08;6.87;;;6.17;;
8281;SDS011;25606;42.686;23.136;2023-01-16T09:28:36;6.90;;;5.90;;
8281;SDS011;25606;42.686;23.136;2023-01-16T09:31:05;8.37;;;5.90;;
8281;SDS011;25606;42.686;23.136;2023-01-16T09:33:32;6.83;;;5.30;;
8281;SDS011;25606;42.686;23.136;2023-01-16T09:35:59;5.70;;;4.80;;
8281;SDS011;25606;42.686;23.136;2023-01-16T09:38:27;6.80;;;4.90;;
8281;SDS011;25606;42.686;23.136;2023-01-16T09:40:55;8.33;;;5.17;;
8281;SDS011;25606;42.686;23.136;2023-01-16T09:46:13;7.47;;;4.60;;
8281;SDS011;25606;42.686;23.136;2023-01-16T09:48:44;5.50;;;4.90;;
8281;SDS011;25606;42.686;23.136;2023-01-16T09:51:13;5.70;;;5.03;;
8281;SDS011;25606;42.686;23.136;2023-01-16T09:53:42;6.30;;;5.03;;
8281;SDS011;25606;42.686;23.136;2023-01-16T09:56:30;7.13;;;5.77;;
8281;SDS011;25606;42.686;23.136;2023-01-16T09:59:19;8.37;;;5.60;;
8281;SDS011;25606;42.686;23.136;2023-01-16T10:01:50;6.30;;;5.30;;
8281;SDS011;25606;42.686;23.136;2023-01-16T10:04:20;6.80;;;5.20;;
8281;SDS011;25606;42.686;23.136;2023-01-16T10:06:51;6.27;;;5.30;;
8281;SDS011;25606;42.686;23.136;2023-01-16T10:09:22;6.73;;;4.50;;
8281;SDS011;25606;42.686;23.136;2023-01-16T10:11:53;7.00;;;4.87;;
8281;SDS011;25606;42.686;23.136;2023-01-16T10:17:11;7.70;;;5.40;;
8281;SDS011;25606;42.686;23.136;2023-01-16T10:19:43;7.17;;;5.53;;
8281;SDS011;25606;42.686;23.136;2023-01-16T10:22:18;7.37;;;5.77;;
8281;SDS011;25606;42.686;23.136;2023-01-16T10:24:51;9.03;;;5.77;;
8281;SDS011;25606;42.686;23.136;2023-01-16T10:27:23;9.03;;;5.77;;
8281;SDS011;25606;42.686;23.136;2023-01-16T10:29:55;6.73;;;5.63;;
8281;SDS011;25606;42.686;23.136;2023-01-16T10:32:27;7.53;;;5.87;;
8281;SDS011;25606;42.686;23.136;2023-01-16T10:34:57;7.13;;;5.57;;
8281;SDS011;25606;42.686;23.136;2023-01-16T10:37:28;8.67;;;6.30;;
8281;SDS011;25606;42.686;23.136;2023-01-16T10:39:57;7.00;;;5.70;;
8281;SDS011;25606;42.686;23.136;2023-01-16T10:42:27;6.00;;;4.60;;
8281;SDS011;25606;42.686;23.136;2023-01-16T10:45:13;12.37;;;5.27;;
8281;SDS011;25606;42.686;23.136;2023-01-16T10:48:06;5.20;;;4.70;;
8281;SDS011;25606;42.686;23.136;2023-01-16T10:50:53;3.70;;;3.00;;
8281;SDS011;25606;42.686;23.136;2023-01-16T10:53:21;5.67;;;4.70;;
8281;SDS011;25606;42.686;23.136;2023-01-16T10:55:48;4.83;;;4.10;;
8281;SDS011;25606;42.686;23.136;2023-01-16T10:58:21;5.30;;;4.07;;
8281;SDS011;25606;42.686;23.136;2023-01-16T11:00:49;4.80;;;3.90;;
8281;SDS011;25606;42.686;23.136;2023-01-16T11:03:19;4.33;;;3.90;;
8281;SDS011;25606;42.686;23.136;2023-01-16T11:05:46;5.53;;;4.20;;
8281;SDS011;25606;42.686;23.136;2023-01-16T11:08:14;5.10;;;3.80;;
8281;SDS011;25606;42.686;23.136;2023-01-16T11:10:44;5.63;;;4.40;;
8281;SDS011;25606;42.686;23.136;2023-01-16T11:13:12;5.90;;;5.13;;
8281;SDS011;25606;42.686;23.136;2023-01-16T11:16:01;4.27;;;3.47;;
8281;SDS011;25606;42.686;23.136;2023-01-16T11:18:47;4.80;;;3.60;;
8281;SDS011;25606;42.686;23.136;2023-01-16T11:21:15;5.13;;;4.43;;
8281;SDS011;25606;42.686;23.136;2023-01-16T11:23:44;4.27;;;3.70;;
8281;SDS011;25606;42.686;23.136;2023-01-16T11:26:14;4.33;;;3.47;;
8281;SDS011;25606;42.686;23.136;2023-01-16T11:28:42;5.53;;;4.47;;
8281;SDS011;25606;42.686;23.136;2023-01-16T11:31:11;4.80;;;3.87;;
8281;SDS011;25606;42.686;23.136;2023-01-16T11:33:40;5.23;;;4.37;;
8281;SDS011;25606;42.686;23.136;2023-01-16T11:36:12;5.27;;;4.10;;
8281;SDS011;25606;42.686;23.136;2023-01-16T11:38:44;5.37;;;4.70;;
8281;SDS011;25606;42.686;23.136;2023-01-16T11:41:11;4.17;;;3.43;;
8281;SDS011;25606;42.686;23.136;2023-01-16T11:43:43;5.57;;;5.00;;
8281;SDS011;25606;42.686;23.136;2023-01-16T11:46:33;7.33;;;4.77;;
8281;SDS011;25606;42.686;23.136;2023-01-16T11:49:01;4.07;;;3.67;;
8281;SDS011;25606;42.686;23.136;2023-01-16T11:51:31;10.83;;;7.33;;
8281;SDS011;25606;42.686;23.136;2023-01-16T11:53:59;5.37;;;4.00;;
8281;SDS011;25606;42.686;23.136;2023-01-16T11:56:47;5.73;;;3.60;;
8281;SDS011;25606;42.686;23.136;2023-01-16T11:59:26;4.87;;;4.00;;
8281;SDS011;25606;42.686;23.136;2023-01-16T12:01:55;9.80;;;7.27;;
8281;SDS011;25606;42.686;23.136;2023-01-16T12:04:45;4.80;;;3.77;;
8281;SDS011;25606;42.686;23.136;2023-01-16T12:07:38;4.47;;;4.03;;
8281;SDS011;25606;42.686;23.136;2023-01-16T12:10:10;4.57;;;3.80;;
8281;SDS011;25606;42.686;23.136;2023-01-16T12:12:42;4.80;;;4.07;;
8281;SDS011;25606;42.686;23.136;2023-01-16T12:15:29;4.43;;;4.03;;
8281;SDS011;25606;42.686;23.136;2023-01-16T12:18:04;5.63;;;4.60;;
8281;SDS011;25606;42.686;23.136;2023-01-16T12:20:38;4.50;;;4.10;;
8281;SDS011;25606;42.686;23.136;2023-01-16T12:23:15;5.27;;;4.33;;
8281;SDS011;25606;42.686;23.136;2023-01-16T12:25:49;4.10;;;3.67;;
8281;SDS011;25606;42.686;23.136;2023-01-16T12:28:23;4.83;;;4.20;;
8281;SDS011;25606;42.686;23.136;2023-01-16T12:30:58;5.17;;;3.37;;
8281;SDS011;25606;42.686;23.136;2023-01-16T12:33:42;3.80;;;3.10;;
8281;SDS011;25606;42.686;23.136;2023-01-16T12:36:23;3.67;;;3.10;;
8281;SDS011;25606;42.686;23.136;2023-01-16T12:39:01;11.73;;;9.53;;
8281;SDS011;25606;42.686;23.136;2023-01-16T12:41:29;5.43;;;4.57;;
8281;SDS011;25606;42.686;23.136;2023-01-16T12:44:21;4.33;;;3.93;;
8281;SDS011;25606;42.686;23.136;2023-01-16T12:46:53;5.90;;;3.97;;
8281;SDS011;25606;42.686;23.136;2023-01-16T12:49:27;4.40;;;4.00;;
8281;SDS011;25606;42.686;23.136;2023-01-16T12:52:02;9.43;;;7.27;;
8281;SDS011;25606;42.686;23.136;2023-01-16T12:54:35;4.90;;;4.03;;
8281;SDS011;25606;42.686;23.136;2023-01-16T12:57:21;5.63;;;3.57;;
8281;SDS011;25606;42.686;23.136;2023-01-16T12:59:53;5.13;;;4.20;;
8281;SDS011;25606;42.686;23.136;2023-01-16T13:02:29;6.23;;;5.03;;
8281;SDS011;25606;42.686;23.136;2023-01-16T13:05:00;4.90;;;3.70;;
8281;SDS011;25606;42.686;23.136;2023-01-16T13:07:29;4.67;;;3.83;;
8281;SDS011;25606;42.686;23.136;2023-01-16T13:10:01;5.03;;;3.50;;
8281;SDS011;25606;42.686;23.136;2023-01-16T13:12:49;5.70;;;4.10;;
8281;SDS011;25606;42.686;23.136;2023-01-16T13:15:35;4.33;;;3.70;;
8281;SDS011;25606;42.686;23.136;2023-01-16T13:18:04;3.73;;;3.40;;
8281;SDS011;25606;42.686;23.136;2023-01-16T13:20:35;3.87;;;3.57;;
8281;SDS011;25606;42.686;23.136;2023-01-16T13:23:16;4.10;;;3.70;;
8281;SDS011;25606;42.686;23.136;2023-01-16T13:25:46;5.83;;;3.57;;
8281;SDS011;25606;42.686;23.136;2023-01-16T13:28:16;6.77;;;4.00;;
8281;SDS011;25606;42.686;23.136;2023-01-16T13:30:45;4.97;;;3.60;;
8281;SDS011;25606;42.686;23.136;2023-01-16T13:33:15;5.27;;;2.97;;
8281;SDS011;25606;42.686;23.136;2023-01-16T13:35:44;5.90;;;4.50;;
8281;SDS011;25606;42.686;23.136;2023-01-16T13:43:49;4.43;;;3.90;;
8281;SDS011;25606;42.686;23.136;2023-01-16T13:46:36;6.27;;;5.27;;
8281;SDS011;25606;42.686;23.136;2023-01-16T13:49:04;7.33;;;5.30;;
8281;SDS011;25606;42.686;23.136;2023-01-16T13:51:39;5.83;;;4.57;;
8281;SDS011;25606;42.686;23.136;2023-01-16T13:54:11;6.40;;;5.00;;
8281;SDS011;25606;42.686;23.136;2023-01-16T13:56:40;5.10;;;3.73;;
8281;SDS011;25606;42.686;23.136;2023-01-16T13:59:16;8.40;;;4.80;;
8281;SDS011;25606;42.686;23.136;2023-01-16T14:01:53;6.57;;;4.10;;
8281;SDS011;25606;42.686;23.136;2023-01-16T14:04:29;11.10;;;7.77;;
8281;SDS011;25606;42.686;23.136;2023-01-16T14:07:01;14.80;;;10.03;;
8281;SDS011;25606;42.686;23.136;2023-01-16T14:12:35;20.63;;;13.13;;
8281;SDS011;25606;42.686;23.136;2023-01-16T14:15:17;20.43;;;13.53;;
8281;SDS011;25606;42.686;23.136;2023-01-16T14:18:12;20.27;;;13.10;;
8281;SDS011;25606;42.686;23.136;2023-01-16T14:20:42;20.27;;;13.47;;
8281;SDS011;25606;42.686;23.136;2023-01-16T14:23:18;20.57;;;14.27;;
8281;SDS011;25606;42.686;23.136;2023-01-16T14:26:04;20.30;;;13.20;;
8281;SDS011;25606;42.686;23.136;2023-01-16T14:28:33;17.93;;;12.20;;
8281;SDS011;25606;42.686;23.136;2023-01-16T14:31:02;20.77;;;13.83;;
8281;SDS011;25606;42.686;23.136;2023-01-16T14:33:33;23.23;;;14.53;;
8281;SDS011;25606;42.686;23.136;2023-01-16T14:36:09;23.30;;;14.23;;
8281;SDS011;25606;42.686;23.136;2023-01-16T14:38:38;22.40;;;13.70;;
8281;SDS011;25606;42.686;23.136;2023-01-16T14:41:14;20.57;;;13.43;;
8281;SDS011;25606;42.686;23.136;2023-01-16T14:44:13;22.33;;;13.87;;
8281;SDS011;25606;42.686;23.136;2023-01-16T14:47:10;21.87;;;14.13;;
8281;SDS011;25606;42.686;23.136;2023-01-16T14:50:08;19.27;;;12.90;;
8281;SDS011;25606;42.686;23.136;2023-01-16T14:53:14;20.63;;;13.03;;
8281;SDS011;25606;42.686;23.136;2023-01-16T14:56:02;24.30;;;14.77;;
8281;SDS011;25606;42.686;23.136;2023-01-16T14:58:35;22.37;;;14.93;;
8281;SDS011;25606;42.686;23.136;2023-01-16T15:01:07;25.00;;;14.50;;
8281;SDS011;25606;42.686;23.136;2023-01-16T15:04:00;24.27;;;13.90;;
8281;SDS011;25606;42.686;23.136;2023-01-16T15:06:31;20.30;;;12.30;;
8281;SDS011;25606;42.686;23.136;2023-01-16T15:09:00;21.57;;;13.50;;
8281;SDS011;25606;42.686;23.136;2023-01-16T15:11:29;18.80;;;13.10;;
8281;SDS011;25606;42.686;23.136;2023-01-16T15:14:09;18.30;;;12.77;;
8281;SDS011;25606;42.686;23.136;2023-01-16T15:16:54;18.53;;;12.20;;
8281;SDS011;25606;42.686;23.136;2023-01-16T15:22:41;18.77;;;12.60;;
8281;SDS011;25606;42.686;23.136;2023-01-16T15:25:11;21.47;;;14.87;;